Time;durP1;ratioP1;P1;durP2;ratioP2;P2;SDS_P1;SDS_P2;PMS_P1;PMS_P2;Temp;Humidity;BMP_temperature;BMP_pressure;BME280_temperature;BME280_humidity;BME280_pressure;Samples;Min_cycle;Max_cycle;Signal;HPM_P1;HPM_P2
2023/07/12 00:58:47;;;;;;;2.65;1.40;;;;;;;19.29;75.50;100823.69;2639469;22;20064;-94
2023/07/12 01:01:29;;;;;;;;;;;;;;;;;;;;;
2023/07/12 01:04:15;;;;;;;2.88;1.08;;;;;;;19.27;74.30;100836.94;5051340;28;20056;-94
2023/07/12 01:15:05;;;;;;;;;;;;;;;;;;;;;
2023/07/12 01:33:53;;;;;;;4.68;1.52;;;;;;;18.60;72.09;100835.69;5271104;23;20046;-95
2023/07/12 01:56:03;;;;;;;3.25;1.25;;;;;;;18.36;73.46;100809.00;4693686;26;20113;-96
2023/07/12 04:30:31;;;;;;;3.70;2.20;;;;;;;16.98;80.99;100884.97;4409943;22;20052;-91
2023/07/12 04:33:15;;;;;;;;;;;;;;;;;;;;;
2023/07/12 04:35:54;;;;;;;4.82;2.33;;;;;;;16.97;82.04;100885.91;4969597;28;20095;-95
2023/07/12 04:52:16;;;;;;;;;;;;;;;;;;;;;
2023/07/12 05:14:27;;;;;;;3.15;1.90;;;;;;;16.93;82.07;100893.06;4900959;28;20268;-94
2023/07/12 05:17:07;;;;;;;3.45;1.77;;;;;;;16.92;81.59;100907.16;4981103;28;20346;-94
2023/07/12 05:19:58;;;;;;;4.47;1.98;;;;;;;16.95;81.33;100906.16;5344403;23;20410;-94
2023/07/12 05:22:23;;;;;;;3.95;1.75;;;;;;;16.94;82.38;100902.66;4987417;28;20459;-95
2023/07/12 05:24:49;;;;;;;3.28;1.90;;;;;;;16.95;81.96;100909.66;4986768;28;20026;-92
2023/07/12 05:27:14;;;;;;;4.40;1.92;;;;;;;16.95;81.80;100914.91;4985663;28;20025;-92
2023/07/12 05:29:40;;;;;;;3.75;1.60;;;;;;;16.97;81.88;100909.56;4990523;28;20081;-93
2023/07/12 05:32:06;;;;;;;3.30;1.70;;;;;;;16.99;81.93;100910.34;4993733;28;20535;-90
2023/07/12 05:34:31;;;;;;;5.07;2.20;;;;;;;17.00;81.82;100909.41;5009635;28;20031;-94
2023/07/12 05:36:56;;;;;;;4.05;1.95;;;;;;;17.02;82.08;100922.47;5006549;28;20057;-94
2023/07/12 05:39:21;;;;;;;3.60;1.70;;;;;;;17.03;82.61;100925.03;4999996;28;20022;-95
2023/07/12 05:41:47;;;;;;;3.60;1.80;;;;;;;17.04;80.89;100916.22;5006798;28;20044;-94
2023/07/12 05:44:12;;;;;;;4.30;1.92;;;;;;;17.05;82.08;100910.03;5000791;28;20087;-93
2023/07/12 05:46:37;;;;;;;2.80;1.77;;;;;;;17.07;80.87;100921.31;4990829;28;20397;-94
2023/07/12 05:49:03;;;;;;;5.10;1.90;;;;;;;17.08;80.71;100920.34;4993008;28;20108;-94
2023/07/12 05:51:29;;;;;;;6.07;2.03;;;;;;;17.08;81.31;100916.88;4990628;28;20026;-91
2023/07/12 05:53:54;;;;;;;6.28;2.05;;;;;;;17.09;81.22;100918.59;4994784;28;20024;-95
2023/07/12 05:56:19;;;;;;;6.63;2.00;;;;;;;17.14;80.81;100927.94;4989267;28;20482;-93
2023/07/12 05:58:44;;;;;;;5.00;1.98;;;;;;;17.19;81.53;100929.47;4988394;28;20033;-94
2023/07/12 06:01:10;;;;;;;4.85;2.03;;;;;;;17.22;80.22;100929.31;4999798;28;20022;-94
2023/07/12 06:03:37;;;;;;;5.40;1.70;;;;;;;17.24;80.07;100936.19;4993516;28;20034;-94
2023/07/12 06:06:06;;;;;;;3.65;1.70;;;;;;;17.28;81.60;100942.13;4994465;28;20034;-94
2023/07/12 06:08:32;;;;;;;4.70;1.92;;;;;;;17.28;80.24;100939.50;4995842;28;20064;-95
2023/07/12 06:10:57;;;;;;;5.05;1.67;;;;;;;17.28;80.75;100945.63;4993921;28;20066;-93
2023/07/12 06:13:22;;;;;;;6.40;1.77;;;;;;;17.33;79.90;100948.00;4998772;28;20489;-93
2023/07/12 06:15:47;;;;;;;4.57;1.65;;;;;;;17.38;79.19;100945.13;4998851;28;20022;-91
2023/07/12 06:18:13;;;;;;;6.35;2.10;;;;;;;17.42;78.66;100952.78;5001285;28;20052;-95
2023/07/12 06:20:38;;;;;;;6.18;1.90;;;;;;;17.46;78.31;100948.22;5005862;28;20108;-92
2023/07/12 06:23:03;;;;;;;4.35;1.70;;;;;;;17.52;78.12;100954.94;5023889;28;20026;-93
2023/07/12 06:25:29;;;;;;;4.18;1.80;;;;;;;17.55;78.06;100952.13;5010904;28;20030;-93
2023/07/12 06:27:55;;;;;;;4.15;1.60;;;;;;;17.58;78.88;100952.81;5010918;28;20026;-94
2023/07/12 06:30:21;;;;;;;5.53;1.90;;;;;;;17.61;77.92;100951.78;5012071;28;20072;-92
2023/07/12 06:32:46;;;;;;;5.70;1.73;;;;;;;17.66;77.39;100957.66;5006049;28;20040;-92
2023/07/12 06:35:12;;;;;;;5.47;2.17;;;;;;;17.74;78.12;100960.75;5006564;28;20022;-92
2023/07/12 06:37:37;;;;;;;6.95;1.88;;;;;;;17.82;78.53;100964.72;5005570;28;20465;-92
2023/07/12 06:40:05;;;;;;;4.50;2.00;;;;;;;17.84;77.66;100969.00;5007320;28;20026;-93
2023/07/12 06:42:30;;;;;;;4.35;1.88;;;;;;;17.82;77.30;100970.00;5009403;28;20052;-92
2023/07/12 06:44:56;;;;;;;5.40;2.03;;;;;;;17.85;76.71;100982.97;5007604;28;20477;-93
2023/07/12 06:47:21;;;;;;;5.90;2.03;;;;;;;17.86;77.77;100992.59;5019322;28;20113;-93
2023/07/12 06:49:46;;;;;;;5.25;1.90;;;;;;;17.88;77.30;100991.56;5022746;28;20072;-95
2023/07/12 06:52:11;;;;;;;4.65;2.00;;;;;;;17.88;77.60;100996.00;5016101;28;20112;-94
2023/07/12 06:54:37;;;;;;;7.10;2.28;;;;;;;17.85;77.09;100994.34;5016339;28;20025;-93
2023/07/12 06:57:02;;;;;;;5.53;2.33;;;;;;;17.81;76.23;101000.72;5007490;28;20649;-93
2023/07/12 06:59:28;;;;;;;5.50;2.30;;;;;;;17.81;76.53;101000.72;5010064;28;20034;-92
2023/07/12 07:01:53;;;;;;;4.40;2.10;;;;;;;17.79;76.52;101001.72;5009904;28;20469;-92
2023/07/12 07:04:18;;;;;;;3.65;1.98;;;;;;;17.77;77.80;101000.97;5010958;28;20040;-93
2023/07/12 07:06:44;;;;;;;4.32;2.03;;;;;;;17.74;77.26;101010.75;5008579;28;20057;-93
2023/07/12 07:09:10;;;;;;;6.35;2.25;;;;;;;17.70;77.61;101013.59;5008233;28;20025;-92
2023/07/12 07:11:35;;;;;;;6.07;2.20;;;;;;;17.66;77.24;101018.19;5009000;28;20465;-91
2023/07/12 07:14:01;;;;;;;4.68;2.25;;;;;;;17.64;77.17;101020.03;5010765;28;20060;-92
2023/07/12 07:16:27;;;;;;;5.07;2.40;;;;;;;17.63;77.35;101030.66;5011717;28;20026;-93
2023/07/12 07:18:52;;;;;;;4.78;2.00;;;;;;;17.60;77.62;101023.75;5009701;28;20042;-91
2023/07/12 07:21:17;;;;;;;7.10;2.17;;;;;;;17.62;77.40;101027.16;5006568;28;20719;-92
2023/07/12 07:23:43;;;;;;;6.75;2.20;;;;;;;17.63;77.29;101023.59;5011419;28;20061;-92
2023/07/12 07:26:10;;;;;;;3.85;2.22;;;;;;;17.63;77.23;101020.97;5008180;28;20430;-93
2023/07/12 07:28:37;;;;;;;5.13;2.13;;;;;;;17.61;77.17;101030.72;5010818;28;20030;-93
2023/07/12 07:31:03;;;;;;;6.35;2.20;;;;;;;17.64;76.34;101029.72;5009319;28;20025;-93
2023/07/12 07:33:28;;;;;;;4.78;2.03;;;;;;;17.65;76.60;101032.25;5011038;28;20037;-93
2023/07/12 07:35:55;;;;;;;4.47;1.95;;;;;;;17.70;77.10;101038.13;4993769;28;20036;-94
2023/07/12 07:38:25;;;;;;;4.75;2.08;;;;;;;17.81;76.24;101039.34;5008618;28;20029;-96
2023/07/12 07:40:51;;;;;;;5.93;2.22;;;;;;;17.91;75.57;101045.84;5013975;28;20473;-94
2023/07/12 07:43:16;;;;;;;5.70;2.17;;;;;;;17.99;75.75;101033.13;4991598;28;20030;-94
2023/07/12 07:45:42;;;;;;;5.53;2.25;;;;;;;18.09;74.87;101038.75;5012751;28;20029;-93
2023/07/12 07:48:07;;;;;;;5.07;2.20;;;;;;;18.23;75.28;101042.41;5010189;28;20022;-93
2023/07/12 07:50:32;;;;;;;5.95;2.10;;;;;;;18.32;74.57;101036.66;5011043;28;20473;-90
2023/07/12 07:52:58;;;;;;;5.95;2.00;;;;;;;18.45;74.02;101048.19;5007991;28;20030;-91
2023/07/12 07:55:23;;;;;;;6.93;2.40;;;;;;;18.58;74.00;101055.41;5008776;28;20509;-93
2023/07/12 07:57:49;;;;;;;4.88;2.10;;;;;;;18.64;71.97;101052.44;5007029;28;20395;-92
2023/07/12 08:00:14;;;;;;;5.18;2.13;;;;;;;18.65;71.82;101054.97;5010848;28;20441;-94
2023/07/12 08:02:43;;;;;;;6.05;2.10;;;;;;;18.69;70.96;101060.06;5010719;28;20029;-93
2023/07/12 08:05:14;;;;;;;4.90;2.15;;;;;;;18.70;71.89;101045.97;5007519;28;20037;-93
2023/07/12 08:07:46;;;;;;;5.88;1.98;;;;;;;18.73;71.95;101065.06;5009838;28;20457;-93
2023/07/12 08:10:15;;;;;;;4.63;1.92;;;;;;;18.81;73.92;101056.72;5011096;28;20458;-93
2023/07/12 08:12:40;;;;;;;6.57;2.10;;;;;;;18.93;72.91;101057.81;5013179;28;20033;-94
2023/07/12 08:15:07;;;;;;;4.93;2.15;;;;;;;19.04;71.66;101070.41;5012326;28;20026;-94
2023/07/12 08:17:32;;;;;;;5.25;2.13;;;;;;;19.07;69.82;101064.97;5023479;28;20476;-93
2023/07/12 08:19:58;;;;;;;5.22;2.10;;;;;;;19.08;70.02;101062.22;5011200;28;20054;-93
2023/07/12 08:22:24;;;;;;;5.60;2.10;;;;;;;19.11;72.01;101063.84;5012090;28;20038;-94
2023/07/12 08:24:49;;;;;;;6.03;2.35;;;;;;;19.13;69.95;101063.75;5022465;28;20022;-91
2023/07/12 08:27:16;;;;;;;4.95;2.30;;;;;;;19.07;69.58;101063.16;5045281;28;20036;-95
2023/07/12 08:29:41;;;;;;;6.75;2.20;;;;;;;18.99;69.89;101073.31;5005117;28;20477;-93
2023/07/12 08:32:07;;;;;;;3.22;1.80;;;;;;;18.94;70.83;101073.59;5027537;28;20045;-94
2023/07/12 08:34:33;;;;;;;7.07;2.10;;;;;;;18.94;70.34;101067.44;5022382;28;20048;-95
2023/07/12 08:36:58;;;;;;;6.15;2.55;;;;;;;19.01;69.66;101082.00;5019871;28;20079;-94
2023/07/12 08:39:23;;;;;;;8.30;2.53;;;;;;;19.02;68.15;101082.84;5028702;28;20030;-94
2023/07/12 08:41:51;;;;;;;7.88;2.30;;;;;;;19.05;68.41;101077.38;5030409;28;20036;-95
2023/07/12 08:44:17;;;;;;;9.23;2.60;;;;;;;19.12;67.80;101084.03;5026866;28;20108;-92
2023/07/12 08:46:55;;;;;;;7.32;2.38;;;;;;;19.20;68.02;101087.03;5017522;28;20116;-91
2023/07/12 08:49:21;;;;;;;6.88;2.88;;;;;;;19.24;67.40;101085.94;5013385;28;20052;-96
2023/07/12 08:51:48;;;;;;;6.75;2.28;;;;;;;19.31;66.99;101085.56;5016566;28;20114;-93
2023/07/12 08:54:27;;;;;;;5.07;2.47;;;;;;;19.39;67.74;101085.97;5024506;28;20028;-92
2023/07/12 08:57:12;;;;;;;8.38;2.50;;;;;;;19.49;68.53;101089.75;5025242;28;20060;-92
2023/07/12 08:59:37;;;;;;;5.47;2.13;;;;;;;19.55;67.65;101088.56;5011528;28;20072;-92
2023/07/12 09:02:07;;;;;;;4.03;1.90;;;;;;;19.56;68.02;101098.13;5010854;28;20049;-93
2023/07/12 09:04:33;;;;;;;5.93;2.53;;;;;;;19.62;66.93;101091.66;5011369;28;20030;-91
2023/07/12 09:07:07;;;;;;;7.32;2.33;;;;;;;19.67;66.53;101095.72;5011927;28;20029;-93
2023/07/12 09:09:38;;;;;;;7.40;2.55;;;;;;;19.73;67.50;101094.50;5012279;28;20053;-93
2023/07/12 09:12:07;;;;;;;6.55;2.40;;;;;;;19.83;67.73;101100.06;5013353;28;20045;-93
2023/07/12 09:14:35;;;;;;;5.05;2.20;;;;;;;19.83;66.50;101100.91;5026957;28;20084;-94
2023/07/12 09:17:01;;;;;;;5.40;2.20;;;;;;;19.85;65.67;101101.66;5026887;28;20061;-94
2023/07/12 09:19:36;;;;;;;6.60;2.78;;;;;;;19.84;65.74;101099.13;5019479;28;20045;-95
2023/07/12 09:22:13;;;;;;;9.15;2.60;;;;;;;19.83;67.23;101095.63;5020430;28;20029;-92
2023/07/12 09:24:44;;;;;;;6.15;2.35;;;;;;;19.80;66.28;101109.03;5029519;28;20033;-92
2023/07/12 09:27:14;;;;;;;;;;;;;;;19.83;67.13;101098.25;5011839;28;20032;-92
2023/07/12 09:29:39;;;;;;;5.53;2.45;;;;;;;19.77;65.58;101089.88;5009156;28;19913;-91
2023/07/12 09:32:17;;;;;;;7.10;2.42;;;;;;;19.72;66.84;101092.81;5010219;28;20436;-90
2023/07/12 09:34:46;;;;;;;5.35;2.45;;;;;;;19.70;65.95;101085.00;5011249;28;20036;-92
2023/07/12 09:37:18;;;;;;;5.65;2.50;;;;;;;19.70;65.50;101082.34;5012518;28;20032;-95
2023/07/12 09:39:58;;;;;;;4.13;2.10;;;;;;;19.71;67.16;101080.53;5010688;28;20488;-94
2023/07/12 09:42:25;;;;;;;5.93;2.55;;;;;;;19.75;65.43;101075.91;5013553;28;20474;-94
2023/07/12 09:44:51;;;;;;;7.32;2.40;;;;;;;19.80;66.06;101073.84;5030744;28;20038;-93
2023/07/12 09:47:37;;;;;;;4.93;2.33;;;;;;;19.93;65.11;101080.09;5019122;28;20034;-92
2023/07/12 09:50:09;;;;;;;5.22;2.13;;;;;;;20.05;64.28;101078.50;5018371;28;20053;-93
2023/07/12 09:52:47;;;;;;;6.53;2.20;;;;;;;20.16;63.47;101083.94;5030212;28;20027;-93
2023/07/12 09:55:18;;;;;;;6.55;2.30;;;;;;;20.23;62.53;101076.53;5011216;28;20026;-93
2023/07/12 09:57:50;;;;;;;6.05;2.60;;;;;;;20.29;62.43;101070.00;5011861;28;20117;-92
2023/07/12 10:00:21;;;;;;;5.93;2.60;;;;;;;20.24;61.79;101078.19;5011701;28;20198;-93
2023/07/12 10:03:17;;;;;;;6.07;2.53;;;;;;;20.26;61.87;101067.53;5011912;28;20049;-91
2023/07/12 10:05:51;;;;;;;5.05;2.42;;;;;;;20.29;62.00;101067.34;5027000;28;20029;-92
2023/07/12 10:08:19;;;;;;;5.57;2.47;;;;;;;20.30;61.79;101063.78;5019869;28;20048;-91
2023/07/12 10:11:04;;;;;;;6.60;2.75;;;;;;;20.35;62.21;101060.81;5026793;28;20421;-92
2023/07/12 10:13:38;;;;;;;6.57;2.60;;;;;;;20.37;61.62;101062.41;4991948;28;20485;-92
2023/07/12 10:16:09;;;;;;;7.68;2.60;;;;;;;20.41;61.62;101065.72;5012998;28;20038;-91
2023/07/12 10:18:37;;;;;;;6.35;2.90;;;;;;;20.44;61.20;101057.59;5012204;28;20103;-91
2023/07/12 10:21:04;;;;;;;5.82;2.63;;;;;;;20.46;62.36;101067.13;5011500;28;20053;-86
2023/07/12 10:23:36;;;;;;;8.18;2.40;;;;;;;20.51;61.98;101063.31;5045787;28;20033;-92
2023/07/12 10:26:05;;;;;;;4.85;2.03;;;;;;;20.56;60.67;101063.88;5031147;28;20347;-93
2023/07/12 10:29:04;;;;;;;4.60;1.92;;;;;;;20.65;61.61;101071.22;5019980;28;20040;-92
2023/07/12 10:31:42;;;;;;;5.55;1.98;;;;;;;20.69;59.46;101082.44;5002459;28;20038;-93
2023/07/12 10:34:22;;;;;;;4.60;1.73;;;;;;;20.75;60.49;101076.78;5012360;28;20038;-92
2023/07/12 10:36:51;;;;;;;5.47;1.88;;;;;;;20.85;58.85;101079.66;5011671;28;20516;-92
2023/07/12 10:39:17;;;;;;;4.75;1.80;;;;;;;20.91;58.16;101081.91;5028155;28;20037;-92
2023/07/12 10:41:46;;;;;;;5.13;1.83;;;;;;;20.98;59.77;101062.06;5018129;28;20104;-94
2023/07/12 10:44:19;;;;;;;4.40;1.67;;;;;;;21.05;58.17;101073.91;5013438;28;20034;-93
2023/07/12 10:46:50;;;;;;;5.55;1.70;;;;;;;21.15;58.26;101074.16;5014939;28;20097;-94
2023/07/12 10:49:19;;;;;;;4.43;1.60;;;;;;;21.24;57.99;101080.63;5023720;28;20117;-92
2023/07/12 10:52:04;;;;;;;4.57;1.40;;;;;;;21.34;58.85;101067.63;5012503;28;20025;-93
2023/07/12 10:54:29;;;;;;;4.95;1.63;;;;;;;21.38;56.78;101077.06;5015782;28;20105;-92
2023/07/12 10:57:01;;;;;;;4.70;1.73;;;;;;;21.44;55.44;101078.44;5031069;28;20105;-93
2023/07/12 10:59:32;;;;;;;4.20;1.27;;;;;;;21.54;55.41;101082.13;5013656;28;20058;-94
2023/07/12 11:02:03;;;;;;;;;;;;;;;21.62;57.84;101077.19;5013270;28;20085;-93
2023/07/12 11:04:35;;;;;;;4.00;1.30;;;;;;;21.64;55.36;101079.72;5013174;28;19925;-93
2023/07/12 11:07:02;;;;;;;4.75;1.60;;;;;;;21.65;55.52;101076.13;5013145;28;20029;-94
2023/07/12 11:09:43;;;;;;;5.43;1.50;;;;;;;21.64;55.52;101083.25;5022710;28;20034;-94
2023/07/12 11:12:09;;;;;;;7.38;1.70;;;;;;;21.66;54.08;101083.13;5012242;28;20107;-93
2023/07/12 11:14:37;;;;;;;6.32;1.70;;;;;;;21.72;55.08;101082.72;5011976;28;20465;-92
2023/07/12 11:17:05;;;;;;;8.40;1.90;;;;;;;21.74;53.63;101087.88;5009678;28;20029;-92
2023/07/12 11:19:40;;;;;;;4.13;1.48;;;;;;;21.75;56.11;101086.94;5006233;28;20053;-92
2023/07/12 11:22:43;;;;;;;4.07;1.40;;;;;;;21.81;55.47;101075.94;5010459;28;20068;-92
2023/07/12 11:25:47;;;;;;;5.18;1.30;;;;;;;21.83;55.68;101084.63;5009212;28;20100;-92
2023/07/12 11:28:25;;;;;;;3.17;1.27;;;;;;;21.84;52.80;101075.72;4979651;28;20052;-94
2023/07/12 11:31:14;;;;;;;3.97;1.35;;;;;;;21.92;55.00;101076.00;5008470;28;20109;-94
2023/07/12 11:33:44;;;;;;;3.60;1.30;;;;;;;21.95;54.58;101073.16;5007265;28;20033;-93
2023/07/12 11:36:18;;;;;;;5.18;1.73;;;;;;;22.00;54.08;101075.47;5007961;28;20532;-93
2023/07/12 11:38:46;;;;;;;6.13;1.40;;;;;;;22.01;52.49;101079.00;5007988;28;20393;-92
2023/07/12 11:41:20;;;;;;;4.40;1.40;;;;;;;22.06;52.68;101079.50;5007728;28;20034;-92
2023/07/12 11:43:45;;;;;;;4.40;1.23;;;;;;;22.21;53.44;101075.75;5010539;28;20120;-96
2023/07/12 11:46:17;;;;;;;5.90;1.50;;;;;;;22.30;54.00;101082.19;5008913;28;20426;-92
2023/07/12 11:48:49;;;;;;;5.03;1.30;;;;;;;22.35;52.44;101071.28;5008843;28;20076;-91
2023/07/12 11:51:29;;;;;;;5.22;1.42;;;;;;;22.38;51.49;101076.34;5008999;28;20025;-94
2023/07/12 11:53:57;;;;;;;4.32;1.38;;;;;;;22.31;51.54;101077.75;5010530;28;20037;-92
2023/07/12 11:56:24;;;;;;;2.67;1.13;;;;;;;22.21;50.79;101081.03;5011203;28;20434;-93
2023/07/12 11:58:49;;;;;;;5.45;1.30;;;;;;;22.18;51.32;101078.63;5010848;28;20099;-94
2023/07/12 12:01:17;;;;;;;3.80;1.20;;;;;;;22.19;50.66;101095.38;5007319;28;20421;-93
2023/07/12 12:03:43;;;;;;;3.47;0.95;;;;;;;22.21;50.58;101086.34;5012232;28;20476;-93
2023/07/12 12:06:12;;;;;;;4.05;1.10;;;;;;;22.21;51.12;101094.28;5017356;28;20478;-85
2023/07/12 12:08:42;;;;;;;5.63;1.20;;;;;;;22.24;51.92;101091.44;5031935;28;20083;-90
2023/07/12 12:11:07;;;;;;;4.43;1.35;;;;;;;22.38;52.25;101079.84;5019591;28;20037;-92
2023/07/12 12:13:33;;;;;;;6.00;1.17;;;;;;;22.47;49.19;101086.31;5013425;28;20107;-94
2023/07/12 12:16:06;;;;;;;4.50;1.50;;;;;;;22.42;49.90;101086.66;5012083;28;20104;-94
2023/07/12 12:18:34;;;;;;;4.25;1.20;;;;;;;22.34;49.77;101093.44;5011138;28;20320;-94
2023/07/12 12:21:03;;;;;;;5.22;1.38;;;;;;;22.19;51.76;101098.88;5011412;28;20045;-93
2023/07/12 12:23:31;;;;;;;4.53;1.50;;;;;;;22.00;52.76;101103.78;5008282;28;20033;-92
2023/07/12 12:26:00;;;;;;;4.22;1.60;;;;;;;21.82;53.58;101107.59;5008358;28;20057;-91
2023/07/12 12:28:32;;;;;;;6.47;1.75;;;;;;;21.72;54.79;101116.28;5007955;28;20385;-92
2023/07/12 12:31:15;;;;;;;7.10;1.98;;;;;;;21.62;55.76;101122.22;5007163;28;20022;-92
2023/07/12 12:34:12;;;;;;;5.47;2.22;;;;;;;21.47;56.41;101113.47;5011691;28;20029;-91
2023/07/12 12:36:37;;;;;;;6.50;2.00;;;;;;;21.40;56.67;101108.69;5008488;28;20029;-92
2023/07/12 12:39:08;;;;;;;5.85;2.00;;;;;;;21.34;56.62;101110.81;5008070;28;20028;-92
2023/07/12 12:41:38;;;;;;;7.35;1.92;;;;;;;21.27;56.97;101111.31;5007278;28;20037;-92
2023/07/12 12:44:15;;;;;;;4.47;2.07;;;;;;;21.24;58.02;101109.72;5006437;28;20512;-91
2023/07/12 12:46:41;;;;;;;5.13;2.08;;;;;;;21.21;57.94;101109.94;5007898;28;20076;-92
2023/07/12 12:49:34;;;;;;;5.30;2.05;;;;;;;21.22;57.63;101101.03;5007006;28;20391;-92
2023/07/12 12:52:21;;;;;;;5.10;2.10;;;;;;;21.25;57.70;101102.66;5005058;28;20064;-92
2023/07/12 12:54:46;;;;;;;7.95;2.38;;;;;;;21.29;57.67;101098.81;5006782;28;20105;-92
2023/07/12 12:57:12;;;;;;;6.25;2.50;;;;;;;21.35;57.51;101101.91;5008117;28;20109;-93
2023/07/12 12:59:37;;;;;;;5.93;2.20;;;;;;;21.38;56.09;101101.72;5015474;28;20388;-92
2023/07/12 13:02:12;;;;;;;4.47;1.90;;;;;;;21.48;56.76;101095.81;5019375;28;20481;-92
2023/07/12 13:04:37;;;;;;;4.20;2.05;;;;;;;21.60;56.07;101105.56;5005507;28;20022;-95
2023/07/12 13:07:04;;;;;;;6.00;2.08;;;;;;;21.62;55.20;101108.97;5006072;28;20448;-92
2023/07/12 13:09:31;;;;;;;4.43;1.90;;;;;;;21.60;54.67;101104.72;5007271;28;20564;-92
2023/07/12 13:11:56;;;;;;;5.85;1.88;;;;;;;21.58;55.09;101106.63;5006616;28;20029;-90
2023/07/12 13:14:22;;;;;;;5.47;2.20;;;;;;;21.59;55.34;101108.31;5006792;28;20416;-92
2023/07/12 13:16:47;;;;;;;5.35;1.83;;;;;;;21.56;54.17;101103.22;5006418;28;20493;-91
2023/07/12 13:19:13;;;;;;;5.22;2.05;;;;;;;21.53;54.08;101110.41;5010205;28;20519;-92
2023/07/12 13:21:40;;;;;;;5.80;1.70;;;;;;;21.51;53.45;101122.06;5010534;28;20048;-91
2023/07/12 13:24:06;;;;;;;4.60;1.70;;;;;;;21.46;53.45;101119.72;5010373;28;20087;-91
2023/07/12 13:26:34;;;;;;;4.15;1.73;;;;;;;21.43;53.85;101114.66;5010380;28;20378;-92
2023/07/12 13:28:59;;;;;;;6.57;2.00;;;;;;;21.42;53.90;101128.84;4992655;28;20485;-91
2023/07/12 13:31:25;;;;;;;6.82;2.08;;;;;;;21.46;53.09;101129.47;5010340;28;20041;-91
2023/07/12 13:33:50;;;;;;;5.93;1.92;;;;;;;21.50;54.43;101130.97;5010360;28;20044;-92
2023/07/12 13:36:35;;;;;;;6.90;2.08;;;;;;;21.56;54.64;101135.81;5010509;28;20029;-92
2023/07/12 13:39:20;;;;;;;6.65;1.77;;;;;;;21.62;54.23;101127.50;4992186;28;20116;-91
2023/07/12 13:41:47;;;;;;;4.57;1.92;;;;;;;21.72;53.13;101129.50;5009484;28;20018;-92
2023/07/12 13:44:14;;;;;;;4.72;1.90;;;;;;;21.84;53.11;101136.63;5012648;28;20385;-92
2023/07/12 13:46:41;;;;;;;10.70;2.05;;;;;;;22.01;53.63;101130.16;5011516;28;20454;-90
2023/07/12 13:49:13;;;;;;;6.45;2.15;;;;;;;22.08;52.64;101131.44;5029641;28;20025;-94
2023/07/12 13:51:39;;;;;;;5.65;1.88;;;;;;;22.11;52.00;101122.41;5017799;28;20029;-92
2023/07/12 13:54:04;;;;;;;9.88;2.00;;;;;;;22.17;52.80;101129.94;5013585;28;20076;-93
2023/07/12 13:56:30;;;;;;;4.72;1.70;;;;;;;22.26;51.11;101142.53;5014390;28;20026;-94
2023/07/12 13:58:55;;;;;;;3.58;1.70;;;;;;;22.35;51.25;101142.84;5012240;28;20022;-90
2023/07/12 14:06:48;;;;;;;3.72;1.63;;;;;;;22.39;50.06;101137.22;5332234;22;20027;-94
2023/07/12 14:09:13;;;;;;;4.50;1.42;;;;;;;22.33;49.37;101144.75;5019326;28;20116;-91
2023/07/12 14:11:39;;;;;;;6.45;1.52;;;;;;;22.25;50.02;101143.47;5034848;28;20065;-93
2023/07/12 14:16:34;;;;;;;5.55;1.58;;;;;;;22.27;49.40;101146.88;5019759;28;20049;-94
2023/07/12 14:19:00;;;;;;;4.95;1.80;;;;;;;22.31;49.76;101151.97;5120227;23;20418;-95
2023/07/12 14:21:47;;;;;;;5.53;1.65;;;;;;;22.41;51.19;101151.19;5047991;28;20077;-95
2023/07/12 14:24:59;;;;;;;3.92;1.52;;;;;;;22.53;51.20;101157.47;5551745;23;20069;-95
2023/07/12 14:27:28;;;;;;;4.20;1.50;;;;;;;22.62;49.26;101148.00;5053401;23;20129;-95
2023/07/12 14:29:55;;;;;;;4.13;1.63;;;;;;;22.63;48.56;101144.38;5031407;28;20029;-93
2023/07/12 14:32:28;;;;;;;4.97;1.55;;;;;;;22.56;49.58;101146.63;5029363;28;20120;-93
2023/07/12 14:34:53;;;;;;;3.42;1.23;;;;;;;22.53;48.88;101144.22;5028072;28;20030;-92
2023/07/12 14:50:35;;;;;;;2.40;1.52;;;;;;;22.04;49.94;101147.63;5595040;23;20351;-95
2023/07/12 14:53:34;;;;;;;;;;;;;;;;;;;;;
2023/07/12 14:56:00;;;;;;;4.88;1.50;;;;;;;21.92;50.07;101152.00;5034540;28;20029;-93
2023/07/12 14:58:25;;;;;;;4.40;1.55;;;;;;;21.87;50.64;101160.25;5053396;28;20428;-92
2023/07/12 15:01:52;;;;;;;4.43;1.33;;;;;;;21.86;50.80;101155.94;5036149;28;20041;-96
2023/07/12 15:04:35;;;;;;;2.90;1.25;;;;;;;21.87;50.46;101160.25;5058653;28;20056;-92
2023/07/12 15:07:09;;;;;;;2.08;1.30;;;;;;;21.98;49.44;101170.97;5204839;22;20133;-93
2023/07/12 15:09:48;;;;;;;;;;;;;;;;;;;;;
2023/07/12 15:12:29;;;;;;;3.63;1.35;;;;;;;22.47;49.41;101165.84;5020278;28;20048;-95
2023/07/12 15:15:05;;;;;;;;;;;;;;;;;;;;;
2023/07/12 15:17:31;;;;;;;3.75;1.55;;;;;;;22.53;49.13;101167.22;5019188;28;20355;-94
2023/07/12 15:19:56;;;;;;;3.55;1.40;;;;;;;22.45;48.80;101172.22;5042080;28;20085;-94
2023/07/12 15:22:24;;;;;;;3.97;1.40;;;;;;;22.20;49.28;101174.78;5024185;28;20025;-94
2023/07/12 15:24:49;;;;;;;5.18;1.58;;;;;;;22.02;48.52;101168.09;5025159;28;20385;-94
2023/07/12 15:27:17;;;;;;;2.22;1.20;;;;;;;21.99;48.89;101185.03;5023236;28;20534;-96
2023/07/12 15:29:43;;;;;;;2.13;1.10;;;;;;;21.91;49.49;101171.50;5009119;28;20116;-95
2023/07/12 15:32:15;;;;;;;4.78;1.40;;;;;;;21.85;49.75;101167.47;5026484;28;20091;-95
2023/07/12 15:34:41;;;;;;;2.53;1.10;;;;;;;21.82;49.39;101172.97;5015629;28;20040;-94
2023/07/12 15:37:15;;;;;;;2.95;1.10;;;;;;;21.75;50.00;101172.53;5035756;28;20439;-94
2023/07/12 15:40:27;;;;;;;5.03;1.00;;;;;;;21.80;50.27;101165.09;5017844;28;20029;-92
2023/07/12 15:42:53;;;;;;;2.55;1.00;;;;;;;21.79;48.87;101162.59;5038838;28;20049;-94
2023/07/12 15:45:18;;;;;;;2.63;1.20;;;;;;;21.75;49.49;101166.38;5004785;28;20035;-93
2023/07/12 15:47:46;;;;;;;2.55;1.20;;;;;;;21.74;49.87;101164.69;5032521;28;20392;-95
2023/07/12 15:50:56;;;;;;;3.38;1.20;;;;;;;21.70;50.69;101168.47;5046950;28;20494;-95
2023/07/12 15:53:24;;;;;;;3.47;1.17;;;;;;;21.63;50.62;101162.75;5016335;28;20045;-95
2023/07/12 15:55:52;;;;;;;2.50;1.20;;;;;;;21.53;50.49;101151.91;5025941;28;20028;-95
2023/07/12 15:58:27;;;;;;;2.60;1.17;;;;;;;21.49;50.97;101156.56;5027105;28;21450;-95
2023/07/12 16:00:59;;;;;;;2.60;1.10;;;;;;;21.48;52.01;101161.97;5028714;28;20108;-94
2023/07/12 16:03:32;;;;;;;2.15;1.00;;;;;;;21.48;51.87;101164.63;5024450;28;20100;-95
2023/07/12 16:05:59;;;;;;;4.57;1.20;;;;;;;21.49;52.21;101163.69;5025483;28;20116;-94
2023/07/12 16:08:26;;;;;;;3.72;1.15;;;;;;;21.51;52.32;101169.72;5022628;28;20047;-94
2023/07/12 16:10:53;;;;;;;2.83;1.05;;;;;;;21.50;51.96;101165.38;5018765;28;20037;-92
2023/07/12 16:13:22;;;;;;;2.45;1.00;;;;;;;21.44;52.16;101171.06;5022944;28;20484;-92
2023/07/12 16:15:49;;;;;;;3.92;1.08;;;;;;;21.38;52.42;101169.69;5020997;28;20021;-91
2023/07/12 16:18:23;;;;;;;3.15;1.17;;;;;;;21.36;52.46;101164.47;5020660;28;20026;-92
2023/07/12 16:20:51;;;;;;;7.40;1.45;;;;;;;21.36;52.33;101175.06;5019902;28;20071;-95
2023/07/12 16:23:33;;;;;;;2.30;1.00;;;;;;;21.45;52.03;101165.66;5020874;28;20029;-94
2023/07/12 16:25:59;;;;;;;;;;;;;;;21.92;52.05;101163.44;5024332;28;20083;-93
2023/07/12 16:28:24;;;;;;;2.30;1.00;;;;;;;22.10;50.70;101165.75;5025315;28;20019;-94
2023/07/12 16:30:49;;;;;;;3.78;0.90;;;;;;;22.07;49.54;101163.31;5024785;28;20096;-94
2023/07/12 16:33:26;;;;;;;4.68;0.93;;;;;;;21.89;50.09;101168.94;5026321;28;20186;-96
2023/07/12 16:35:54;;;;;;;3.78;1.10;;;;;;;21.77;49.17;101165.34;5029964;28;20708;-94
2023/07/12 16:38:23;;;;;;;3.03;1.10;;;;;;;21.70;49.39;101164.06;5023577;28;20113;-92
2023/07/12 16:41:11;;;;;;;2.88;0.80;;;;;;;21.67;50.07;101167.78;5026394;28;20036;-91
2023/07/12 16:43:37;;;;;;;4.28;0.88;;;;;;;21.62;49.41;101161.94;5025397;28;20420;-91
2023/07/12 16:46:02;;;;;;;2.47;0.90;;;;;;;21.61;49.58;101170.81;5024958;28;20690;-94
2023/07/12 16:48:29;;;;;;;3.95;0.98;;;;;;;21.59;50.54;101161.25;5024722;28;20356;-92
2023/07/12 16:50:55;;;;;;;2.05;0.90;;;;;;;21.62;49.99;101161.94;5025577;28;20072;-92
2023/07/12 16:53:30;;;;;;;4.22;0.98;;;;;;;21.78;49.65;101167.00;5009879;28;20053;-94
2023/07/12 16:55:55;;;;;;;2.67;1.00;;;;;;;22.19;49.42;101164.25;5026080;28;20021;-92
2023/07/12 16:58:25;;;;;;;2.70;0.80;;;;;;;22.56;47.71;101167.00;5029559;28;20358;-94